EIMS weather

Mountshannon Seaplane Base
Mountshannon, County Clare, Ireland

Public forecast

Using degrees Celsius for public forecast. Weather courtesy of forecast.io.

METAR (pilot weather report)

Closest report is Shannon Airport, 22.8 nm (42.1 km) SW. Retrieved 2019/06/25 07:30 UTC (21 minutes ago):

EINN 250730Z 35011KT 9999 FEW004 SCT010 BKN042 14/13 Q1021 NOSIG

TAF (pilot weather forecast)

Closest forecast is Shannon Airport, 22.8 nm (42.1 km) SW. Retrieved 2019/06/25 06:09 UTC (2 hours ago):

TAF EINN 250500Z 2506/2606 35006KT 9999 BKN008 TEMPO 2506/2507 BKN004 BECMG 2507/2510 03008KT BKN020 TEMPO 2510/2521 -SHRA SCT018CB PROB40 TEMPO 2512/2520 4000 SHRA PROB30 TEMPO 2601/2605 4000 BR